sensor_id;sensor_type;location;lat;lon;timestamp;temperature;humidity
3310;DHT22;1667;53.238;10.394;2023-09-08T00:02:05;22.30;90.20
3310;DHT22;1667;53.238;10.394;2023-09-08T00:07:05;22.20;90.10
3310;DHT22;1667;53.238;10.394;2023-09-08T00:12:05;22.10;90.20
3310;DHT22;1667;53.238;10.394;2023-09-08T00:17:04;22.10;90.20
3310;DHT22;1667;53.238;10.394;2023-09-08T00:22:05;22.00;90.10
3310;DHT22;1667;53.238;10.394;2023-09-08T00:27:04;22.00;90.20
3310;DHT22;1667;53.238;10.394;2023-09-08T00:32:04;21.90;90.30
3310;DHT22;1667;53.238;10.394;2023-09-08T00:42:58;21.80;90.70
3310;DHT22;1667;53.238;10.394;2023-09-08T00:47:57;21.70;90.60
3310;DHT22;1667;53.238;10.394;2023-09-08T00:52:56;21.70;90.60
3310;DHT22;1667;53.238;10.394;2023-09-08T00:57:54;21.60;90.60
3310;DHT22;1667;53.238;10.394;2023-09-08T01:03:07;21.50;90.90
3310;DHT22;1667;53.238;10.394;2023-09-08T01:08:09;21.50;91.00
3310;DHT22;1667;53.238;10.394;2023-09-08T01:13:08;21.40;90.90
3310;DHT22;1667;53.238;10.394;2023-09-08T01:18:09;21.40;91.00
3310;DHT22;1667;53.238;10.394;2023-09-08T01:23:18;21.30;91.00
3310;DHT22;1667;53.238;10.394;2023-09-08T01:28:21;21.20;91.10
3310;DHT22;1667;53.238;10.394;2023-09-08T01:33:22;21.10;91.10
3310;DHT22;1667;53.238;10.394;2023-09-08T01:38:24;21.10;91.00
3310;DHT22;1667;53.238;10.394;2023-09-08T01:43:24;21.00;91.00
3310;DHT22;1667;53.238;10.394;2023-09-08T01:48:24;21.00;91.20
3310;DHT22;1667;53.238;10.394;2023-09-08T01:53:23;20.90;91.00
3310;DHT22;1667;53.238;10.394;2023-09-08T01:58:24;20.80;91.20
3310;DHT22;1667;53.238;10.394;2023-09-08T02:03:24;20.70;91.20
3310;DHT22;1667;53.238;10.394;2023-09-08T02:08:23;20.70;91.40
3310;DHT22;1667;53.238;10.394;2023-09-08T02:13:23;20.60;91.50
3310;DHT22;1667;53.238;10.394;2023-09-08T02:18:22;20.50;91.60
3310;DHT22;1667;53.238;10.394;2023-09-08T02:23:21;20.50;91.80
3310;DHT22;1667;53.238;10.394;2023-09-08T02:28:20;20.40;91.40
3310;DHT22;1667;53.238;10.394;2023-09-08T02:33:20;20.40;91.60
3310;DHT22;1667;53.238;10.394;2023-09-08T02:38:19;20.30;91.60
3310;DHT22;1667;53.238;10.394;2023-09-08T02:43:18;20.30;91.40
3310;DHT22;1667;53.238;10.394;2023-09-08T02:48:17;20.20;91.40
3310;DHT22;1667;53.238;10.394;2023-09-08T02:53:18;20.20;91.60
3310;DHT22;1667;53.238;10.394;2023-09-08T02:58:17;20.20;91.80
3310;DHT22;1667;53.238;10.394;2023-09-08T03:03:17;20.20;91.60
3310;DHT22;1667;53.238;10.394;2023-09-08T03:08:16;20.10;91.60
3310;DHT22;1667;53.238;10.394;2023-09-08T03:13:16;20.10;91.50
3310;DHT22;1667;53.238;10.394;2023-09-08T03:18:15;20.10;91.70
3310;DHT22;1667;53.238;10.394;2023-09-08T03:23:14;20.00;91.70
3310;DHT22;1667;53.238;10.394;2023-09-08T03:28:14;20.00;91.90
3310;DHT22;1667;53.238;10.394;2023-09-08T03:33:14;19.90;91.80
3310;DHT22;1667;53.238;10.394;2023-09-08T03:38:13;19.90;91.70
3310;DHT22;1667;53.238;10.394;2023-09-08T03:43:13;19.80;91.80
3310;DHT22;1667;53.238;10.394;2023-09-08T03:48:13;19.80;91.90
3310;DHT22;1667;53.238;10.394;2023-09-08T03:53:14;19.70;91.90
3310;DHT22;1667;53.238;10.394;2023-09-08T03:58:13;19.60;92.10
3310;DHT22;1667;53.238;10.394;2023-09-08T04:03:14;19.60;92.00
3310;DHT22;1667;53.238;10.394;2023-09-08T04:08:13;19.60;92.00
3310;DHT22;1667;53.238;10.394;2023-09-08T04:13:13;19.50;92.20
3310;DHT22;1667;53.238;10.394;2023-09-08T04:18:13;19.40;92.00
3310;DHT22;1667;53.238;10.394;2023-09-08T04:23:12;19.30;92.20
3310;DHT22;1667;53.238;10.394;2023-09-08T04:28:11;19.30;92.30
3310;DHT22;1667;53.238;10.394;2023-09-08T04:33:10;19.20;92.60
3310;DHT22;1667;53.238;10.394;2023-09-08T04:38:11;19.20;92.50
3310;DHT22;1667;53.238;10.394;2023-09-08T04:43:10;19.20;92.50
3310;DHT22;1667;53.238;10.394;2023-09-08T04:48:09;19.20;92.50
3310;DHT22;1667;53.238;10.394;2023-09-08T04:53:11;19.10;92.30
3310;DHT22;1667;53.238;10.394;2023-09-08T04:58:09;19.10;92.60
3310;DHT22;1667;53.238;10.394;2023-09-08T05:03:08;19.10;92.70
3310;DHT22;1667;53.238;10.394;2023-09-08T05:08:07;19.10;92.80
3310;DHT22;1667;53.238;10.394;2023-09-08T05:13:08;19.00;92.90
3310;DHT22;1667;53.238;10.394;2023-09-08T05:18:21;18.90;93.00
3310;DHT22;1667;53.238;10.394;2023-09-08T05:23:22;18.90;93.30
3310;DHT22;1667;53.238;10.394;2023-09-08T05:28:23;18.90;93.10
3310;DHT22;1667;53.238;10.394;2023-09-08T05:33:34;18.90;92.90
3310;DHT22;1667;53.238;10.394;2023-09-08T05:38:34;18.90;93.20
3310;DHT22;1667;53.238;10.394;2023-09-08T05:43:35;18.90;93.40
3310;DHT22;1667;53.238;10.394;2023-09-08T05:48:34;18.90;93.50
3310;DHT22;1667;53.238;10.394;2023-09-08T05:53:34;19.00;93.50
3310;DHT22;1667;53.238;10.394;2023-09-08T05:58:38;19.10;93.40
3310;DHT22;1667;53.238;10.394;2023-09-08T06:03:36;19.20;94.20
3310;DHT22;1667;53.238;10.394;2023-09-08T06:08:35;19.40;94.20
3310;DHT22;1667;53.238;10.394;2023-09-08T06:13:34;19.50;94.10
3310;DHT22;1667;53.238;10.394;2023-09-08T06:18:36;19.60;94.10
3310;DHT22;1667;53.238;10.394;2023-09-08T06:23:41;19.80;94.50
3310;DHT22;1667;53.238;10.394;2023-09-08T06:35:16;20.20;94.40
3310;DHT22;1667;53.238;10.394;2023-09-08T06:40:15;20.40;94.70
3310;DHT22;1667;53.238;10.394;2023-09-08T06:45:15;20.60;94.50
3310;DHT22;1667;53.238;10.394;2023-09-08T06:50:17;20.70;94.20
3310;DHT22;1667;53.238;10.394;2023-09-08T06:55:17;20.90;94.10
3310;DHT22;1667;53.238;10.394;2023-09-08T07:00:19;21.00;94.10
3310;DHT22;1667;53.238;10.394;2023-09-08T07:05:20;21.10;93.90
3310;DHT22;1667;53.238;10.394;2023-09-08T07:10:20;21.30;93.80
3310;DHT22;1667;53.238;10.394;2023-09-08T07:15:19;21.50;93.70
3310;DHT22;1667;53.238;10.394;2023-09-08T07:20:19;21.70;93.30
3310;DHT22;1667;53.238;10.394;2023-09-08T07:25:18;21.70;93.20
3310;DHT22;1667;53.238;10.394;2023-09-08T07:30:18;21.90;93.80
3310;DHT22;1667;53.238;10.394;2023-09-08T07:35:37;22.20;93.80
3310;DHT22;1667;53.238;10.394;2023-09-08T07:40:37;22.40;93.40
3310;DHT22;1667;53.238;10.394;2023-09-08T07:45:36;22.50;93.20
3310;DHT22;1667;53.238;10.394;2023-09-08T07:50:36;22.80;94.10
3310;DHT22;1667;53.238;10.394;2023-09-08T07:55:35;23.10;93.60
3310;DHT22;1667;53.238;10.394;2023-09-08T08:00:35;23.10;93.40
3310;DHT22;1667;53.238;10.394;2023-09-08T08:05:34;23.40;92.90
3310;DHT22;1667;53.238;10.394;2023-09-08T08:10:34;23.60;93.30
3310;DHT22;1667;53.238;10.394;2023-09-08T08:15:37;23.80;92.80
3310;DHT22;1667;53.238;10.394;2023-09-08T08:20:36;24.10;93.10
3310;DHT22;1667;53.238;10.394;2023-09-08T08:25:36;24.50;93.20
3310;DHT22;1667;53.238;10.394;2023-09-08T08:30:34;24.70;92.60
3310;DHT22;1667;53.238;10.394;2023-09-08T08:35:34;25.00;92.50
3310;DHT22;1667;53.238;10.394;2023-09-08T08:40:33;25.00;92.80
3310;DHT22;1667;53.238;10.394;2023-09-08T08:45:34;25.30;92.50
3310;DHT22;1667;53.238;10.394;2023-09-08T08:50:35;25.70;92.60
3310;DHT22;1667;53.238;10.394;2023-09-08T09:01:18;26.30;91.80
3310;DHT22;1667;53.238;10.394;2023-09-08T09:06:18;26.40;91.90
3310;DHT22;1667;53.238;10.394;2023-09-08T09:11:17;26.50;91.50
3310;DHT22;1667;53.238;10.394;2023-09-08T09:16:18;26.70;91.50
3310;DHT22;1667;53.238;10.394;2023-09-08T09:21:19;26.80;91.40
3310;DHT22;1667;53.238;10.394;2023-09-08T09:26:25;27.00;91.40
3310;DHT22;1667;53.238;10.394;2023-09-08T09:31:25;27.20;91.50
3310;DHT22;1667;53.238;10.394;2023-09-08T09:36:24;27.30;91.50
3310;DHT22;1667;53.238;10.394;2023-09-08T09:41:23;27.50;91.30
3310;DHT22;1667;53.238;10.394;2023-09-08T09:46:22;27.70;91.20
3310;DHT22;1667;53.238;10.394;2023-09-08T09:51:22;28.00;90.80
3310;DHT22;1667;53.238;10.394;2023-09-08T09:56:22;28.20;91.00
3310;DHT22;1667;53.238;10.394;2023-09-08T10:01:25;28.50;90.40
3310;DHT22;1667;53.238;10.394;2023-09-08T10:06:25;28.70;90.30
3310;DHT22;1667;53.238;10.394;2023-09-08T10:11:28;28.90;90.40
3310;DHT22;1667;53.238;10.394;2023-09-08T10:16:28;29.00;90.10
3310;DHT22;1667;53.238;10.394;2023-09-08T10:21:51;29.20;89.90
3310;DHT22;1667;53.238;10.394;2023-09-08T10:26:55;29.20;90.40
3310;DHT22;1667;53.238;10.394;2023-09-08T10:31:55;29.30;89.10
3310;DHT22;1667;53.238;10.394;2023-09-08T10:36:56;29.50;89.50
3310;DHT22;1667;53.238;10.394;2023-09-08T10:42:22;29.60;88.50
3310;DHT22;1667;53.238;10.394;2023-09-08T10:47:24;29.80;89.40
3310;DHT22;1667;53.238;10.394;2023-09-08T10:52:25;29.90;88.80
3310;DHT22;1667;53.238;10.394;2023-09-08T10:57:25;30.10;87.80
3310;DHT22;1667;53.238;10.394;2023-09-08T11:02:33;30.20;87.20
3310;DHT22;1667;53.238;10.394;2023-09-08T11:07:35;30.40;85.10
3310;DHT22;1667;53.238;10.394;2023-09-08T11:12:34;30.60;85.70
3310;DHT22;1667;53.238;10.394;2023-09-08T11:17:34;30.70;83.90
3310;DHT22;1667;53.238;10.394;2023-09-08T11:22:36;30.80;84.30
3310;DHT22;1667;53.238;10.394;2023-09-08T11:27:36;30.90;85.40
3310;DHT22;1667;53.238;10.394;2023-09-08T11:32:39;31.00;83.60
3310;DHT22;1667;53.238;10.394;2023-09-08T11:37:40;31.00;82.80
3310;DHT22;1667;53.238;10.394;2023-09-08T11:42:39;31.00;82.90
3310;DHT22;1667;53.238;10.394;2023-09-08T11:47:42;31.10;82.30
3310;DHT22;1667;53.238;10.394;2023-09-08T11:52:43;31.20;81.80
3310;DHT22;1667;53.238;10.394;2023-09-08T11:57:44;31.30;81.50
3310;DHT22;1667;53.238;10.394;2023-09-08T12:02:44;31.40;81.00
3310;DHT22;1667;53.238;10.394;2023-09-08T12:07:44;31.50;80.00
3310;DHT22;1667;53.238;10.394;2023-09-08T12:12:44;31.50;81.10
3310;DHT22;1667;53.238;10.394;2023-09-08T12:17:47;31.50;80.60
3310;DHT22;1667;53.238;10.394;2023-09-08T12:22:51;31.70;80.40
3310;DHT22;1667;53.238;10.394;2023-09-08T12:27:50;31.80;79.50
3310;DHT22;1667;53.238;10.394;2023-09-08T12:39:41;31.90;78.30
3310;DHT22;1667;53.238;10.394;2023-09-08T12:44:40;31.90;79.50
3310;DHT22;1667;53.238;10.394;2023-09-08T12:49:39;31.90;77.50
3310;DHT22;1667;53.238;10.394;2023-09-08T12:54:38;32.00;78.80
3310;DHT22;1667;53.238;10.394;2023-09-08T12:59:39;32.00;77.70
3310;DHT22;1667;53.238;10.394;2023-09-08T13:04:37;32.10;77.30
3310;DHT22;1667;53.238;10.394;2023-09-08T13:09:36;32.10;77.80
3310;DHT22;1667;53.238;10.394;2023-09-08T13:14:36;32.00;77.30
3310;DHT22;1667;53.238;10.394;2023-09-08T13:19:36;31.90;76.30
3310;DHT22;1667;53.238;10.394;2023-09-08T13:24:36;31.90;77.10
3310;DHT22;1667;53.238;10.394;2023-09-08T13:29:35;31.80;78.10
3310;DHT22;1667;53.238;10.394;2023-09-08T13:34:36;31.70;77.40
3310;DHT22;1667;53.238;10.394;2023-09-08T13:39:36;31.70;77.30
3310;DHT22;1667;53.238;10.394;2023-09-08T13:44:36;31.70;79.50
3310;DHT22;1667;53.238;10.394;2023-09-08T13:49:37;31.70;77.00
3310;DHT22;1667;53.238;10.394;2023-09-08T13:54:37;31.60;77.90
3310;DHT22;1667;53.238;10.394;2023-09-08T13:59:41;31.50;75.50
3310;DHT22;1667;53.238;10.394;2023-09-08T14:04:41;31.50;77.20
3310;DHT22;1667;53.238;10.394;2023-09-08T14:09:48;31.40;78.60
3310;DHT22;1667;53.238;10.394;2023-09-08T14:20:47;31.30;78.30
3310;DHT22;1667;53.238;10.394;2023-09-08T14:25:46;31.20;78.80
3310;DHT22;1667;53.238;10.394;2023-09-08T14:30:45;31.20;79.30
3310;DHT22;1667;53.238;10.394;2023-09-08T14:35:44;31.20;77.70
3310;DHT22;1667;53.238;10.394;2023-09-08T14:40:56;31.10;79.10
3310;DHT22;1667;53.238;10.394;2023-09-08T14:45:54;31.00;77.70
3310;DHT22;1667;53.238;10.394;2023-09-08T14:50:55;31.00;78.40
3310;DHT22;1667;53.238;10.394;2023-09-08T14:55:59;30.90;78.40
3310;DHT22;1667;53.238;10.394;2023-09-08T15:00:58;30.80;77.30
3310;DHT22;1667;53.238;10.394;2023-09-08T15:06:01;30.70;76.90
3310;DHT22;1667;53.238;10.394;2023-09-08T15:11:02;30.50;75.00
3310;DHT22;1667;53.238;10.394;2023-09-08T15:16:00;30.50;76.70
3310;DHT22;1667;53.238;10.394;2023-09-08T15:20:59;30.40;77.90
3310;DHT22;1667;53.238;10.394;2023-09-08T15:25:59;30.40;77.10
3310;DHT22;1667;53.238;10.394;2023-09-08T15:31:00;30.30;77.60
3310;DHT22;1667;53.238;10.394;2023-09-08T15:35:59;30.30;77.90
3310;DHT22;1667;53.238;10.394;2023-09-08T15:41:15;30.20;76.10
3310;DHT22;1667;53.238;10.394;2023-09-08T15:46:19;30.20;77.50
3310;DHT22;1667;53.238;10.394;2023-09-08T15:51:18;30.10;76.80
3310;DHT22;1667;53.238;10.394;2023-09-08T15:56:18;30.10;77.00
3310;DHT22;1667;53.238;10.394;2023-09-08T16:01:16;30.10;78.10
3310;DHT22;1667;53.238;10.394;2023-09-08T16:06:17;30.10;77.60
3310;DHT22;1667;53.238;10.394;2023-09-08T16:11:16;30.00;78.10
3310;DHT22;1667;53.238;10.394;2023-09-08T16:16:15;30.00;78.40
3310;DHT22;1667;53.238;10.394;2023-09-08T16:21:15;30.00;78.50
3310;DHT22;1667;53.238;10.394;2023-09-08T16:26:15;29.90;77.20
3310;DHT22;1667;53.238;10.394;2023-09-08T16:31:14;29.90;77.80
3310;DHT22;1667;53.238;10.394;2023-09-08T16:36:13;29.80;76.90
3310;DHT22;1667;53.238;10.394;2023-09-08T16:41:12;29.70;77.60
3310;DHT22;1667;53.238;10.394;2023-09-08T16:46:13;29.60;77.60
3310;DHT22;1667;53.238;10.394;2023-09-08T16:51:12;29.60;77.20
3310;DHT22;1667;53.238;10.394;2023-09-08T16:56:11;29.50;78.10
3310;DHT22;1667;53.238;10.394;2023-09-08T17:01:11;29.40;77.70
3310;DHT22;1667;53.238;10.394;2023-09-08T17:06:11;29.40;78.10
3310;DHT22;1667;53.238;10.394;2023-09-08T17:11:10;29.30;77.90
3310;DHT22;1667;53.238;10.394;2023-09-08T17:16:08;29.10;77.70
3310;DHT22;1667;53.238;10.394;2023-09-08T17:21:07;29.10;79.00
3310;DHT22;1667;53.238;10.394;2023-09-08T17:26:08;29.00;78.60
3310;DHT22;1667;53.238;10.394;2023-09-08T17:31:06;28.90;78.30
3310;DHT22;1667;53.238;10.394;2023-09-08T17:36:05;28.70;78.60
3310;DHT22;1667;53.238;10.394;2023-09-08T17:41:04;28.60;78.20
3310;DHT22;1667;53.238;10.394;2023-09-08T17:46:04;28.50;79.40
3310;DHT22;1667;53.238;10.394;2023-09-08T17:51:03;28.40;79.50
3310;DHT22;1667;53.238;10.394;2023-09-08T17:56:02;28.30;79.50
3310;DHT22;1667;53.238;10.394;2023-09-08T18:01:01;28.20;79.70
3310;DHT22;1667;53.238;10.394;2023-09-08T18:06:02;28.00;79.60
3310;DHT22;1667;53.238;10.394;2023-09-08T18:11:02;27.90;79.60
3310;DHT22;1667;53.238;10.394;2023-09-08T18:16:03;27.80;79.60
3310;DHT22;1667;53.238;10.394;2023-09-08T18:21:04;27.60;80.10
3310;DHT22;1667;53.238;10.394;2023-09-08T18:26:02;27.50;80.20
3310;DHT22;1667;53.238;10.394;2023-09-08T18:31:01;27.30;80.60
3310;DHT22;1667;53.238;10.394;2023-09-08T18:36:00;27.20;81.30
3310;DHT22;1667;53.238;10.394;2023-09-08T18:41:01;27.00;81.20
3310;DHT22;1667;53.238;10.394;2023-09-08T18:46:00;26.90;81.70
3310;DHT22;1667;53.238;10.394;2023-09-08T18:51:00;26.80;82.00
3310;DHT22;1667;53.238;10.394;2023-09-08T18:56:00;26.70;82.40
3310;DHT22;1667;53.238;10.394;2023-09-08T19:01:02;26.50;82.50
3310;DHT22;1667;53.238;10.394;2023-09-08T19:06:02;26.40;82.80
3310;DHT22;1667;53.238;10.394;2023-09-08T19:11:02;26.30;83.20
3310;DHT22;1667;53.238;10.394;2023-09-08T19:16:02;26.20;83.50
3310;DHT22;1667;53.238;10.394;2023-09-08T19:21:01;26.10;83.70
3310;DHT22;1667;53.238;10.394;2023-09-08T19:26:05;26.00;83.80
3310;DHT22;1667;53.238;10.394;2023-09-08T19:31:04;25.90;84.30
3310;DHT22;1667;53.238;10.394;2023-09-08T19:36:04;25.80;84.50
3310;DHT22;1667;53.238;10.394;2023-09-08T19:41:04;25.70;84.90
3310;DHT22;1667;53.238;10.394;2023-09-08T19:46:04;25.60;85.30
3310;DHT22;1667;53.238;10.394;2023-09-08T19:51:03;25.50;85.40
3310;DHT22;1667;53.238;10.394;2023-09-08T19:56:02;25.40;86.40
3310;DHT22;1667;53.238;10.394;2023-09-08T20:01:08;25.30;85.50
3310;DHT22;1667;53.238;10.394;2023-09-08T20:06:12;25.30;85.70
3310;DHT22;1667;53.238;10.394;2023-09-08T20:11:12;25.20;85.90
3310;DHT22;1667;53.238;10.394;2023-09-08T20:16:13;25.00;86.30
3310;DHT22;1667;53.238;10.394;2023-09-08T20:21:12;24.90;86.50
3310;DHT22;1667;53.238;10.394;2023-09-08T20:26:11;24.80;86.80
3310;DHT22;1667;53.238;10.394;2023-09-08T20:31:10;24.70;86.80
3310;DHT22;1667;53.238;10.394;2023-09-08T20:36:15;24.60;87.10
3310;DHT22;1667;53.238;10.394;2023-09-08T20:41:14;24.50;87.90
3310;DHT22;1667;53.238;10.394;2023-09-08T20:46:12;24.40;88.50
3310;DHT22;1667;53.238;10.394;2023-09-08T20:51:17;24.30;88.50
3310;DHT22;1667;53.238;10.394;2023-09-08T20:56:15;24.20;88.80
3310;DHT22;1667;53.238;10.394;2023-09-08T21:01:14;24.10;89.20
3310;DHT22;1667;53.238;10.394;2023-09-08T21:06:14;24.00;89.30
3310;DHT22;1667;53.238;10.394;2023-09-08T21:11:17;23.90;89.50
3310;DHT22;1667;53.238;10.394;2023-09-08T21:16:16;23.80;89.50
3310;DHT22;1667;53.238;10.394;2023-09-08T21:21:16;23.70;89.70
3310;DHT22;1667;53.238;10.394;2023-09-08T21:26:15;23.60;89.90
3310;DHT22;1667;53.238;10.394;2023-09-08T21:31:15;23.60;90.10
3310;DHT22;1667;53.238;10.394;2023-09-08T21:36:13;23.50;90.10
3310;DHT22;1667;53.238;10.394;2023-09-08T21:41:14;23.40;90.10
3310;DHT22;1667;53.238;10.394;2023-09-08T21:46:13;23.30;90.20
3310;DHT22;1667;53.238;10.394;2023-09-08T21:51:12;23.20;90.40
3310;DHT22;1667;53.238;10.394;2023-09-08T21:56:11;23.10;90.40
3310;DHT22;1667;53.238;10.394;2023-09-08T22:01:11;23.00;90.60
3310;DHT22;1667;53.238;10.394;2023-09-08T22:06:11;22.90;90.60
3310;DHT22;1667;53.238;10.394;2023-09-08T22:11:10;22.90;90.80
3310;DHT22;1667;53.238;10.394;2023-09-08T22:16:10;22.80;90.90
3310;DHT22;1667;53.238;10.394;2023-09-08T22:21:09;22.80;90.90
3310;DHT22;1667;53.238;10.394;2023-09-08T22:26:35;22.60;90.80
3310;DHT22;1667;53.238;10.394;2023-09-08T22:31:36;22.60;91.00
3310;DHT22;1667;53.238;10.394;2023-09-08T22:36:35;22.50;91.10
3310;DHT22;1667;53.238;10.394;2023-09-08T22:41:33;22.40;91.10
3310;DHT22;1667;53.238;10.394;2023-09-08T22:46:32;22.40;91.30
3310;DHT22;1667;53.238;10.394;2023-09-08T22:51:32;22.30;91.20
3310;DHT22;1667;53.238;10.394;2023-09-08T22:56:32;22.30;91.20
3310;DHT22;1667;53.238;10.394;2023-09-08T23:01:31;22.20;91.20
3310;DHT22;1667;53.238;10.394;2023-09-08T23:06:31;22.20;91.20
3310;DHT22;1667;53.238;10.394;2023-09-08T23:11:30;22.10;91.10
3310;DHT22;1667;53.238;10.394;2023-09-08T23:16:31;22.00;91.10
3310;DHT22;1667;53.238;10.394;2023-09-08T23:21:31;22.00;91.00
3310;DHT22;1667;53.238;10.394;2023-09-08T23:26:30;22.00;91.10
3310;DHT22;1667;53.238;10.394;2023-09-08T23:31:29;21.90;90.90
3310;DHT22;1667;53.238;10.394;2023-09-08T23:36:28;21.90;91.10
3310;DHT22;1667;53.238;10.394;2023-09-08T23:41:28;21.80;90.90
3310;DHT22;1667;53.238;10.394;2023-09-08T23:46:52;21.80;91.10
3310;DHT22;1667;53.238;10.394;2023-09-08T23:51:51;21.80;91.20
3310;DHT22;1667;53.238;10.394;2023-09-08T23:56:55;21.70;91.40
